Time;durP1;ratioP1;P1;durP2;ratioP2;P2;SDS_P1;SDS_P2;PMS_P1;PMS_P2;Temp;Humidity;BMP_temperature;BMP_pressure;BME280_temperature;BME280_humidity;BME280_pressure;Samples;Min_cycle;Max_cycle;Signal;HPM_P1;HPM_P2
2022/07/31 00:00:58;;;;;;;5.97;3.08;;;;;;;19.42;73.74;68928.19;5007024;28;20487;-77
2022/07/31 00:03:23;;;;;;;5.32;3.00;;;;;;;19.43;73.87;68923.34;5009899;28;20116;-78
2022/07/31 00:05:49;;;;;;;6.35;2.70;;;;;;;19.41;73.77;68932.44;5011447;28;20185;-78
2022/07/31 00:08:14;;;;;;;9.70;3.60;;;;;;;;;;4994609;28;20052;-77
2022/07/31 00:10:39;;;;;;;6.30;3.55;;;;;;;19.37;74.13;68923.03;5012364;28;20057;-78
2022/07/31 00:13:05;;;;;;;5.00;3.33;;;;;;;;;;5011954;28;20042;-78
2022/07/31 00:15:30;;;;;;;6.03;3.30;;;;;;;19.30;74.20;68922.56;5014487;28;20037;-77
2022/07/31 00:17:56;;;;;;;5.43;3.25;;;;;;;19.27;74.35;68911.59;5014387;28;20063;-77
2022/07/31 00:20:22;;;;;;;4.57;3.22;;;;;;;;;;5011995;28;20049;-77
2022/07/31 00:22:48;;;;;;;5.78;2.88;;;;;;;19.30;74.23;68920.44;5009614;28;20050;-78
2022/07/31 00:25:15;;;;;;;5.10;3.10;;;;;;;19.29;73.99;68913.91;5011190;28;20527;-78
2022/07/31 00:27:41;;;;;;;5.00;3.40;;;;;;;19.31;74.02;68924.28;5010126;28;20489;-77
2022/07/31 00:30:08;;;;;;;4.35;3.42;;;;;;;19.29;73.82;68913.31;5011331;28;20065;-78
2022/07/31 00:32:33;;;;;;;7.20;3.55;;;;;;;19.30;74.07;68915.03;5010936;28;20049;-77
2022/07/31 00:34:59;;;;;;;7.28;3.67;;;;;;;19.29;74.32;68918.72;5009834;28;20042;-77
2022/07/31 00:37:24;;;;;;;4.90;3.63;;;;;;;19.28;74.12;68909.50;5010943;28;20524;-78
2022/07/31 00:39:50;;;;;;;4.43;3.75;;;;;;;19.23;74.18;68911.88;5010145;28;20065;-79
2022/07/31 00:42:24;;;;;;;7.68;4.07;;;;;;;19.21;74.15;68904.19;5010714;28;20301;-78
2022/07/31 00:44:49;;;;;;;7.22;3.80;;;;;;;;;;5010475;28;20070;-77
2022/07/31 00:47:16;;;;;;;5.97;3.67;;;;;;;19.15;74.06;68895.19;5010506;28;20050;-77
2022/07/31 00:49:41;;;;;;;6.65;3.88;;;;;;;;;;5009819;28;20042;-78
2022/07/31 00:52:07;;;;;;;7.50;4.22;;;;;;;19.09;74.18;68897.00;5010009;28;20046;-78
2022/07/31 00:54:33;;;;;;;5.75;3.60;;;;;;;19.03;74.44;68884.75;5009310;28;20092;-77
2022/07/31 00:56:58;;;;;;;6.65;4.15;;;;;;;18.99;74.56;68880.19;5011068;28;20038;-77
2022/07/31 00:59:24;;;;;;;6.75;3.45;;;;;;;;;;4993258;28;20061;-78
2022/07/31 01:01:49;;;;;;;6.28;3.50;;;;;;;18.92;74.29;68869.50;5015157;28;20053;-78
2022/07/31 01:04:17;;;;;;;5.68;3.92;;;;;;;18.84;74.92;68863.63;5010371;28;20184;-78
2022/07/31 01:06:43;;;;;;;5.03;3.60;;;;;;;;;;5008500;28;20156;-78
2022/07/31 01:09:08;;;;;;;4.32;3.70;;;;;;;;;;5004704;28;20698;-78
2022/07/31 01:11:51;;;;;;;5.07;3.97;;;;;;;18.75;75.09;68853.34;5008362;28;20046;-77
2022/07/31 01:14:20;;;;;;;5.68;3.58;;;;;;;18.70;75.58;68844.91;5008502;28;20332;-77
2022/07/31 01:16:47;;;;;;;5.03;3.67;;;;;;;;;;5010504;28;20730;-78
2022/07/31 01:19:27;;;;;;;4.53;3.78;;;;;;;;;;4990398;28;20064;-77
2022/07/31 01:22:11;;;;;;;7.53;3.60;;;;;;;18.59;75.86;68835.63;4988349;28;20038;-77
2022/07/31 01:24:47;;;;;;;6.93;3.67;;;;;;;18.56;75.78;68832.22;4993230;28;20494;-78
2022/07/31 01:27:26;;;;;;;7.05;3.75;;;;;;;;;;5010062;28;20061;-76
2022/07/31 01:29:55;;;;;;;6.43;3.92;;;;;;;18.55;75.64;68831.06;4990530;28;21089;-77
2022/07/31 01:32:24;;;;;;;7.57;4.00;;;;;;;;;;5008120;28;20401;-78
2022/07/31 01:35:05;;;;;;;;;;;;;;;18.55;75.83;68839.16;5010236;28;20053;-77
2022/07/31 01:37:35;;;;;;;6.13;4.28;;;;;;;;;;4991720;28;20380;-77
2022/07/31 01:40:12;;;;;;;6.22;3.90;;;;;;;18.52;75.55;68827.63;5004679;28;20042;-78
2022/07/31 01:42:41;;;;;;;7.05;3.55;;;;;;;18.55;75.17;68831.06;5010318;28;20037;-78
2022/07/31 01:45:09;;;;;;;5.50;4.03;;;;;;;18.60;75.46;68842.16;5008275;28;20053;-78
2022/07/31 01:47:36;;;;;;;5.47;3.47;;;;;;;18.59;75.55;68835.63;5010185;28;20044;-78
2022/07/31 01:50:04;;;;;;;7.03;3.80;;;;;;;18.60;74.92;68841.59;5009047;28;20129;-78
2022/07/31 01:52:31;;;;;;;6.13;3.53;;;;;;;18.62;74.89;68839.06;5009431;28;20509;-78
2022/07/31 01:54:59;;;;;;;7.88;3.70;;;;;;;18.62;74.98;68844.47;4992847;28;20049;-77
2022/07/31 01:57:26;;;;;;;5.07;3.05;;;;;;;18.63;74.69;68840.19;5009804;28;20521;-77
2022/07/31 01:59:53;;;;;;;6.93;3.35;;;;;;;;;;5008043;28;20041;-78
2022/07/31 02:02:20;;;;;;;5.10;3.42;;;;;;;18.59;74.72;68835.63;5007643;28;20041;-78
2022/07/31 02:04:46;;;;;;;4.88;3.13;;;;;;;;;;5008703;28;20564;-77
2022/07/31 02:07:13;;;;;;;5.10;3.28;;;;;;;;;;5008279;28;20053;-77
2022/07/31 02:09:41;;;;;;;5.85;3.15;;;;;;;;;;5010234;28;20042;-79
2022/07/31 02:12:07;;;;;;;4.68;3.20;;;;;;;;;;5007602;28;20042;-78
2022/07/31 02:14:33;;;;;;;4.93;3.00;;;;;;;18.50;74.76;68825.38;5005906;28;20046;-78
2022/07/31 02:16:59;;;;;;;8.25;3.30;;;;;;;;;;5009261;28;20142;-77
2022/07/31 02:19:24;;;;;;;7.50;3.50;;;;;;;;;;5010917;28;20071;-77
2022/07/31 02:21:50;;;;;;;4.03;2.80;;;;;;;18.52;74.48;68833.03;4991264;28;20054;-78
2022/07/31 02:24:16;;;;;;;5.88;2.90;;;;;;;18.47;74.69;68819.81;5005671;28;20062;-78
2022/07/31 02:26:42;;;;;;;4.70;3.25;;;;;;;18.44;74.41;68819.09;5008355;28;20556;-78
2022/07/31 02:29:11;;;;;;;6.20;3.17;;;;;;;18.44;74.86;68823.88;4990402;28;20054;-78
2022/07/31 02:31:38;;;;;;;5.90;3.20;;;;;;;18.38;74.79;68811.66;5009030;28;20050;-78
2022/07/31 02:34:04;;;;;;;5.72;2.92;;;;;;;18.34;75.24;68804.97;5007111;28;20528;-78
2022/07/31 02:36:33;;;;;;;5.60;3.13;;;;;;;18.26;74.95;68799.09;4992222;28;20050;-78
2022/07/31 02:38:58;;;;;;;;;;;;;;;;;;4991368;28;20115;-78
2022/07/31 02:41:25;;;;;;;6.03;3.20;;;;;;;18.10;75.72;68785.66;5009427;28;20008;-77
2022/07/31 02:43:51;;;;;;;6.18;3.17;;;;;;;18.08;75.57;68778.53;5010376;28;20029;-78
2022/07/31 02:46:17;;;;;;;6.80;3.03;;;;;;;;;;5010756;28;20050;-77
2022/07/31 02:48:43;;;;;;;6.22;3.25;;;;;;;;;;5009506;28;20075;-78
2022/07/31 02:51:08;;;;;;;6.18;3.50;;;;;;;;;;5012593;28;20038;-78
2022/07/31 02:53:34;;;;;;;4.90;3.35;;;;;;;;;;5015084;28;20049;-78
2022/07/31 02:56:00;;;;;;;4.95;3.00;;;;;;;17.92;76.43;68760.28;5012230;28;20050;-78
2022/07/31 02:58:26;;;;;;;4.78;3.00;;;;;;;17.92;76.72;68765.66;5013375;28;20132;-76
2022/07/31 03:01:00;;;;;;;5.13;2.78;;;;;;;17.86;76.67;68758.81;5010038;28;20458;-77
2022/07/31 03:03:25;;;;;;;5.28;3.10;;;;;;;17.84;76.98;68756.53;5011030;28;20033;-78
2022/07/31 03:05:51;;;;;;;7.22;3.38;;;;;;;;;;5012043;28;20057;-76
2022/07/31 03:08:16;;;;;;;5.85;3.55;;;;;;;;;;5008990;28;20593;-78
2022/07/31 03:10:41;;;;;;;4.67;3.57;;;;;;;;;;5012307;28;20401;-78
2022/07/31 03:13:08;;;;;;;5.78;3.22;;;;;;;17.77;77.62;68749.09;5011785;28;20281;-78
2022/07/31 03:15:35;;;;;;;5.05;3.47;;;;;;;17.76;77.69;68743.16;5009652;28;20050;-78
2022/07/31 03:18:00;;;;;;;5.25;3.03;;;;;;;;;;5010832;28;20091;-77
2022/07/31 03:20:27;;;;;;;5.33;3.57;;;;;;;17.73;77.58;68744.53;5012825;28;20042;-78
2022/07/31 03:22:52;;;;;;;6.72;3.65;;;;;;;17.74;77.59;68740.28;5012550;28;20879;-77
2022/07/31 03:25:18;;;;;;;4.70;3.40;;;;;;;17.75;77.72;68742.00;5013288;28;20091;-78
2022/07/31 03:27:45;;;;;;;7.75;3.00;;;;;;;17.75;77.75;68747.41;5011374;28;20038;-78
2022/07/31 03:30:14;;;;;;;4.07;3.03;;;;;;;;;;5011230;28;20049;-78
2022/07/31 03:32:40;;;;;;;5.25;3.45;;;;;;;;;;5007343;28;20285;-78
2022/07/31 03:35:05;;;;;;;3.97;3.20;;;;;;;17.80;77.21;68747.72;5033390;23;20133;-79
2022/07/31 03:37:31;;;;;;;5.32;3.45;;;;;;;17.81;77.02;68754.25;5012093;28;20285;-76
2022/07/31 03:39:56;;;;;;;5.55;3.47;;;;;;;;;;4994971;28;20045;-76
2022/07/31 03:42:23;;;;;;;4.53;3.53;;;;;;;17.86;76.59;68758.81;5008454;28;20046;-78
2022/07/31 03:44:48;;;;;;;5.20;3.35;;;;;;;;;;5013293;28;20368;-78
2022/07/31 03:47:14;;;;;;;5.55;3.60;;;;;;;17.89;76.03;68756.84;5008785;28;20070;-77
2022/07/31 03:49:40;;;;;;;5.72;3.65;;;;;;;17.93;76.06;68762.00;5011320;28;20053;-78
2022/07/31 03:52:05;;;;;;;5.20;3.20;;;;;;;17.94;75.64;68768.53;5010289;28;20168;-77
2022/07/31 03:54:30;;;;;;;5.03;3.40;;;;;;;17.96;75.83;68762.72;5006368;28;20073;-78
2022/07/31 03:56:56;;;;;;;4.75;3.45;;;;;;;17.98;75.31;68772.50;4997665;28;20054;-77
2022/07/31 03:59:22;;;;;;;5.38;3.20;;;;;;;18.01;74.67;68776.53;5010945;28;20503;-77
2022/07/31 04:01:48;;;;;;;5.60;3.40;;;;;;;18.06;75.01;68776.25;5007254;28;20129;-77
2022/07/31 04:04:16;;;;;;;5.32;3.30;;;;;;;;;;4991071;28;20045;-77
2022/07/31 04:06:41;;;;;;;5.15;3.30;;;;;;;18.16;74.19;68792.50;5007790;28;20042;-77
2022/07/31 04:09:07;;;;;;;5.72;3.20;;;;;;;;;;5007670;28;20096;-77
2022/07/31 04:11:32;;;;;;;5.40;3.40;;;;;;;18.24;72.92;68796.22;4990285;28;20077;-77
2022/07/31 04:13:57;;;;;;;5.97;3.20;;;;;;;18.29;72.84;68806.75;5007396;28;20038;-77
2022/07/31 04:16:23;;;;;;;5.80;3.22;;;;;;;18.34;72.68;68812.47;5008071;28;20046;-78
2022/07/31 04:18:48;;;;;;;6.63;3.38;;;;;;;18.34;72.43;68813.03;5007996;28;20452;-78
2022/07/31 04:21:13;;;;;;;6.18;2.95;;;;;;;18.37;72.24;68818.59;5007968;28;20125;-78
2022/07/31 04:23:39;;;;;;;3.42;2.97;;;;;;;18.40;72.59;68819.31;5008032;28;20551;-78
2022/07/31 04:26:04;;;;;;;5.25;3.00;;;;;;;;;;5008529;28;20050;-78
2022/07/31 04:28:30;;;;;;;5.43;2.80;;;;;;;18.44;72.11;68824.47;5007463;28;20901;-78
2022/07/31 04:30:55;;;;;;;4.35;3.08;;;;;;;18.47;71.69;68822.50;5004595;28;20297;-78
2022/07/31 04:33:21;;;;;;;5.28;3.03;;;;;;;18.52;71.96;68833.03;4994966;28;20042;-78
2022/07/31 04:35:46;;;;;;;5.82;3.08;;;;;;;18.53;72.17;68828.78;5007295;28;20077;-78
2022/07/31 04:38:12;;;;;;;5.10;2.90;;;;;;;;;;4986981;28;20577;-78
2022/07/31 04:40:37;;;;;;;7.18;2.90;;;;;;;18.57;71.81;68838.75;4990792;28;20046;-78
2022/07/31 04:43:03;;;;;;;3.88;2.70;;;;;;;18.61;71.69;68835.22;5006725;28;20097;-78
2022/07/31 04:45:28;;;;;;;5.88;3.13;;;;;;;18.62;71.54;68839.06;5005090;28;20048;-78
2022/07/31 04:47:53;;;;;;;5.13;2.75;;;;;;;18.64;71.39;68840.75;5008331;28;20489;-78
2022/07/31 04:50:19;;;;;;;6.28;2.67;;;;;;;;;;5006586;28;20862;-78
2022/07/31 04:52:44;;;;;;;4.18;2.63;;;;;;;18.69;71.15;68846.47;5006732;28;20045;-78
2022/07/31 04:55:09;;;;;;;5.28;2.80;;;;;;;;;;5006553;28;20072;-78
2022/07/31 04:57:34;;;;;;;4.22;3.20;;;;;;;;;;5004112;28;20053;-78
2022/07/31 05:00:00;;;;;;;4.18;2.70;;;;;;;;;;4988958;28;20048;-78
2022/07/31 05:02:25;;;;;;;8.07;3.17;;;;;;;18.71;71.29;68846.63;5006074;28;20053;-78
2022/07/31 05:04:50;;;;;;;6.88;3.25;;;;;;;;;;5008245;28;20042;-78
2022/07/31 05:07:16;;;;;;;5.78;2.97;;;;;;;18.71;71.63;68846.63;5007287;28;20048;-78
2022/07/31 05:09:41;;;;;;;3.92;2.70;;;;;;;;;;4989707;28;20123;-78
2022/07/31 05:12:07;;;;;;;6.72;3.38;;;;;;;;;;5005888;28;20088;-78
2022/07/31 05:14:32;;;;;;;5.85;3.40;;;;;;;18.77;71.24;68855.63;5005532;28;20067;-78
2022/07/31 05:16:58;;;;;;;5.28;3.00;;;;;;;18.82;71.33;68860.78;5006006;28;20034;-78
2022/07/31 05:19:28;;;;;;;5.43;3.25;;;;;;;;;;5006975;28;20057;-78
2022/07/31 05:21:54;;;;;;;5.75;3.47;;;;;;;18.82;71.45;68860.78;5005913;28;20053;-78
2022/07/31 05:24:20;;;;;;;4.88;3.28;;;;;;;;;;5002792;28;20038;-78
2022/07/31 05:26:45;;;;;;;5.63;3.60;;;;;;;;;;5006745;28;20046;-78
2022/07/31 05:29:11;;;;;;;8.23;3.60;;;;;;;18.81;72.65;68865.03;4988121;28;20577;-78
2022/07/31 05:31:36;;;;;;;5.13;3.47;;;;;;;;;;5006043;28;20034;-78
2022/07/31 05:34:01;;;;;;;6.85;3.50;;;;;;;18.81;73.22;68859.63;5005622;28;20030;-77
2022/07/31 05:36:27;;;;;;;4.90;3.50;;;;;;;18.82;73.67;68861.34;5006699;28;20050;-78
2022/07/31 05:38:52;;;;;;;6.03;3.60;;;;;;;18.79;73.69;68857.94;5006214;28;20197;-78
2022/07/31 05:41:18;;;;;;;7.15;4.15;;;;;;;18.81;73.71;68859.63;5006060;28;20057;-77
2022/07/31 05:43:43;;;;;;;8.20;4.80;;;;;;;;;;5005962;28;20064;-78
2022/07/31 05:46:08;;;;;;;5.32;4.20;;;;;;;18.77;74.58;68855.63;5002173;28;20042;-78
2022/07/31 05:48:34;;;;;;;6.13;4.53;;;;;;;18.76;75.19;68859.91;5005170;28;20487;-78
2022/07/31 05:51:00;;;;;;;6.40;4.60;;;;;;;18.79;74.98;68862.72;5004663;28;20461;-78
2022/07/31 05:53:25;;;;;;;7.45;4.75;;;;;;;;;;5006282;28;20045;-78
2022/07/31 05:55:51;;;;;;;7.22;5.15;;;;;;;18.84;75.26;68863.06;5006464;28;20042;-78
2022/07/31 05:58:18;;;;;;;7.20;5.45;;;;;;;18.86;74.93;68870.75;5005773;28;20049;-78
2022/07/31 06:00:46;;;;;;;7.38;5.15;;;;;;;18.91;75.03;68871.06;5005985;28;20042;-78
2022/07/31 06:03:12;;;;;;;8.13;5.30;;;;;;;18.94;74.86;68875.06;4986774;28;20481;-78
2022/07/31 06:05:38;;;;;;;7.55;5.13;;;;;;;;;;5006699;28;20042;-78
2022/07/31 06:08:03;;;;;;;7.50;5.65;;;;;;;18.94;75.84;68875.06;5005345;28;20034;-78
2022/07/31 06:10:29;;;;;;;8.52;6.15;;;;;;;18.99;75.77;68879.63;5003376;28;20416;-78
2022/07/31 06:12:54;;;;;;;8.82;6.65;;;;;;;18.94;76.30;68872.34;5006850;28;20121;-78
2022/07/31 06:15:20;;;;;;;8.98;6.68;;;;;;;19.03;76.28;68889.59;5004689;28;20714;-78
2022/07/31 06:17:45;;;;;;;11.43;7.47;;;;;;;19.03;76.49;68884.75;5006303;28;20144;-78
2022/07/31 06:20:12;;;;;;;11.05;7.43;;;;;;;19.06;77.02;68885.50;5005472;28;20528;-78
2022/07/31 06:22:38;;;;;;;10.27;7.68;;;;;;;;;;4987632;28;20053;-78
2022/07/31 06:25:04;;;;;;;10.00;8.32;;;;;;;19.05;76.95;68884.34;5003443;28;20057;-78
2022/07/31 06:27:30;;;;;;;10.27;8.82;;;;;;;;;;4996893;28;20042;-78
2022/07/31 06:29:56;;;;;;;11.52;8.07;;;;;;;19.13;77.07;68901.59;5002871;28;20103;-78
2022/07/31 06:32:22;;;;;;;11.95;8.82;;;;;;;;;;5009025;28;20404;-78
2022/07/31 06:34:47;;;;;;;9.68;8.07;;;;;;;19.25;77.08;68914.13;5009643;28;20049;-78
2022/07/31 06:37:12;;;;;;;10.20;8.63;;;;;;;19.28;77.08;68912.75;5010794;28;20563;-78
2022/07/31 06:39:37;;;;;;;10.95;8.23;;;;;;;;;;5010491;28;20038;-78
2022/07/31 06:42:03;;;;;;;12.57;9.00;;;;;;;;;;5010521;28;20048;-78
2022/07/31 06:44:29;;;;;;;12.50;9.00;;;;;;;;;;5009009;28;20277;-78
2022/07/31 06:46:54;;;;;;;13.07;9.45;;;;;;;;;;5008316;28;20045;-78
2022/07/31 06:49:19;;;;;;;12.93;9.87;;;;;;;;;;5004875;28;20060;-78
2022/07/31 06:51:44;;;;;;;12.57;9.20;;;;;;;;;;5010281;28;20320;-78
2022/07/31 06:54:11;;;;;;;13.07;10.57;;;;;;;19.59;78.81;68947.03;5009316;28;20045;-78
2022/07/31 06:56:37;;;;;;;11.80;9.75;;;;;;;19.68;78.75;68962.16;5008877;28;20355;-78
2022/07/31 06:59:03;;;;;;;12.48;9.57;;;;;;;;;;5009711;28;20567;-78
2022/07/31 07:01:29;;;;;;;14.02;10.25;;;;;;;;;;5009173;28;20084;-78
2022/07/31 07:03:54;;;;;;;15.20;11.43;;;;;;;19.70;79.38;68953.66;5010484;28;20493;-78
2022/07/31 07:06:21;;;;;;;14.20;11.77;;;;;;;19.69;79.89;68963.88;5009629;28;20117;-78
2022/07/31 07:08:46;;;;;;;18.10;11.57;;;;;;;19.71;79.96;68960.19;4993943;28;20046;-78
2022/07/31 07:11:12;;;;;;;14.77;11.80;;;;;;;19.81;79.75;68977.59;5009913;28;20042;-78
2022/07/31 07:13:38;;;;;;;17.00;13.13;;;;;;;19.88;79.77;68979.63;5010061;28;20109;-78
2022/07/31 07:16:03;;;;;;;14.73;12.63;;;;;;;19.88;80.04;68979.63;5008705;28;20050;-78
2022/07/31 07:18:29;;;;;;;15.45;13.00;;;;;;;;;;5002960;28;20042;-78
2022/07/31 07:20:54;;;;;;;20.38;13.00;;;;;;;19.87;80.28;68977.91;5007014;28;20072;-78
2022/07/31 07:23:20;;;;;;;17.88;13.52;;;;;;;;;;5010177;28;20034;-78
2022/07/31 07:25:45;;;;;;;19.52;12.38;;;;;;;;;;4993687;28;20048;-78
2022/07/31 07:28:11;;;;;;;20.33;14.07;;;;;;;20.05;80.31;69004.47;5011206;28;20046;-78
2022/07/31 07:30:36;;;;;;;19.83;14.15;;;;;;;20.11;80.31;69010.16;5003562;28;20289;-78
2022/07/31 07:33:03;;;;;;;18.83;12.60;;;;;;;20.14;81.01;69008.78;5001225;28;20044;-78
2022/07/31 07:35:28;;;;;;;21.35;15.88;;;;;;;20.15;80.52;69006.66;5006936;28;20096;-78
2022/07/31 07:37:54;;;;;;;18.13;15.05;;;;;;;20.25;80.76;69018.06;5009227;28;20180;-78
2022/07/31 07:40:20;;;;;;;17.83;13.80;;;;;;;20.27;80.91;69023.63;5005725;28;20045;-78
2022/07/31 07:42:45;;;;;;;21.27;15.00;;;;;;;20.35;80.46;69029.50;4991513;28;20444;-78
2022/07/31 07:45:12;;;;;;;21.65;16.67;;;;;;;20.37;80.00;69031.22;5008207;28;20038;-78
2022/07/31 07:47:38;;;;;;;21.48;16.67;;;;;;;20.26;80.24;69021.94;5009647;28;20038;-78
2022/07/31 07:50:04;;;;;;;20.45;15.35;;;;;;;;;;4988348;28;20145;-78
2022/07/31 07:52:29;;;;;;;23.50;16.45;;;;;;;20.37;79.83;69034.50;5006909;28;20048;-78
2022/07/31 07:54:54;;;;;;;24.23;17.88;;;;;;;20.44;80.00;69047.91;5008458;28;20054;-78
2022/07/31 07:57:20;;;;;;;22.88;17.58;;;;;;;20.51;79.06;69050.53;5007880;28;20042;-78
2022/07/31 07:59:47;;;;;;;23.95;17.05;;;;;;;20.56;78.95;69055.09;5007907;28;20069;-78
2022/07/31 08:02:13;;;;;;;22.52;17.30;;;;;;;20.62;79.12;69061.97;5006521;28;20501;-78
2022/07/31 08:04:38;;;;;;;22.27;16.30;;;;;;;20.61;78.39;69061.41;5009991;28;20042;-78
2022/07/31 08:07:04;;;;;;;22.48;19.20;;;;;;;20.61;78.11;69058.13;5011183;28;20180;-78
2022/07/31 08:09:30;;;;;;;22.05;17.38;;;;;;;;;;5010319;28;20046;-77
2022/07/31 08:11:55;;;;;;;24.27;17.20;;;;;;;;;;5003439;28;20125;-78
2022/07/31 08:14:20;;;;;;;23.77;18.80;;;;;;;20.53;79.30;69051.69;5007844;28;20045;-78
2022/07/31 08:16:46;;;;;;;21.50;18.08;;;;;;;20.73;78.10;69075.13;4993057;28;20060;-78
2022/07/31 08:19:11;;;;;;;22.83;18.02;;;;;;;20.82;77.81;69084.28;5009776;28;20042;-78
2022/07/31 08:21:38;;;;;;;22.90;16.23;;;;;;;;;;5009808;28;20049;-78
2022/07/31 08:24:04;;;;;;;21.10;15.02;;;;;;;20.90;76.81;69094.00;5009880;28;20038;-78
2022/07/31 08:29:13;;;;;;;18.60;15.10;;;;;;;20.83;76.21;69083.28;5009042;28;20037;-78
2022/07/31 08:31:38;;;;;;;20.27;15.00;;;;;;;20.88;76.18;69091.69;5006970;28;20041;-78
2022/07/31 08:34:04;;;;;;;21.00;14.77;;;;;;;20.99;76.01;69111.25;5009762;28;20044;-78
2022/07/31 08:36:29;;;;;;;19.77;14.40;;;;;;;21.06;74.88;69111.16;5008415;28;20081;-78
2022/07/31 08:38:55;;;;;;;20.20;15.50;;;;;;;;;;5007174;28;20041;-78
2022/07/31 08:41:20;;;;;;;19.00;14.48;;;;;;;21.18;73.94;69124.88;5009628;28;20084;-78
2022/07/31 08:43:45;;;;;;;18.83;14.25;;;;;;;;;;4993168;28;20088;-78
2022/07/31 08:46:11;;;;;;;20.47;14.60;;;;;;;;;;5006005;28;20477;-78
2022/07/31 08:48:39;;;;;;;20.40;12.73;;;;;;;;;;5008377;28;20281;-78
2022/07/31 08:51:05;;;;;;;16.38;12.00;;;;;;;;;;4988848;28;20045;-78
2022/07/31 08:53:35;;;;;;;15.45;12.10;;;;;;;21.11;73.32;69116.88;5006832;28;20417;-78
2022/07/31 08:56:02;;;;;;;16.17;12.50;;;;;;;21.24;73.30;69131.75;5003463;28;20050;-78
2022/07/31 08:58:27;;;;;;;17.15;11.57;;;;;;;21.39;72.29;69146.22;4993157;28;20457;-78
2022/07/31 09:00:53;;;;;;;14.15;12.30;;;;;;;21.36;72.34;69144.91;5008618;28;20104;-78
2022/07/31 09:03:19;;;;;;;18.15;12.13;;;;;;;21.36;72.81;69144.91;5012274;28;20127;-78
2022/07/31 09:05:44;;;;;;;15.25;11.50;;;;;;;21.28;72.02;69133.59;5020877;28;20080;-78
2022/07/31 09:08:10;;;;;;;17.40;12.43;;;;;;;21.24;72.10;69131.19;5009667;28;20383;-77
2022/07/31 09:10:35;;;;;;;14.98;11.45;;;;;;;21.27;72.49;69135.19;5005820;28;20042;-78
2022/07/31 09:13:14;;;;;;;16.10;11.77;;;;;;;21.21;73.09;69128.31;5007866;28;20050;-78
2022/07/31 09:15:41;;;;;;;15.13;10.23;;;;;;;21.24;72.72;69131.75;4990462;28;20513;-78
2022/07/31 09:18:20;;;;;;;14.20;9.98;;;;;;;21.18;72.79;69120.03;4992029;28;20046;-78
2022/07/31 09:20:59;;;;;;;12.15;9.15;;;;;;;21.27;72.33;69135.19;5008432;28;20061;-78
2022/07/31 09:23:26;;;;;;;13.02;7.95;;;;;;;21.28;73.08;69136.31;5003425;28;20452;-78
2022/07/31 09:25:56;;;;;;;10.75;7.85;;;;;;;21.24;73.17;69129.03;5008683;28;20072;-78
2022/07/31 09:28:34;;;;;;;12.00;8.02;;;;;;;21.26;72.52;69134.03;5007549;28;20042;-78
2022/07/31 09:31:00;;;;;;;8.80;7.28;;;;;;;21.26;73.18;69138.88;5007963;28;20037;-78
2022/07/31 09:33:28;;;;;;;11.90;7.50;;;;;;;21.09;74.07;69114.56;5008245;28;20464;-78
2022/07/31 09:35:55;;;;;;;;;;;;;;;21.26;74.67;69134.03;5009698;28;20069;-79
2022/07/31 09:38:30;;;;;;;9.63;6.85;;;;;;;21.31;74.71;69139.19;5007199;28;19917;-79
2022/07/31 09:40:55;;;;;;;10.27;7.20;;;;;;;21.31;74.84;69139.75;4989006;28;20034;-79
2022/07/31 09:43:24;;;;;;;8.55;7.20;;;;;;;21.47;74.12;69156.94;4989271;28;20065;-78
2022/07/31 09:46:15;;;;;;;10.05;6.93;;;;;;;21.58;73.89;69166.81;5006528;28;20417;-79
2022/07/31 09:48:50;;;;;;;8.38;5.70;;;;;;;21.67;74.31;69179.25;4971053;28;20049;-78
2022/07/31 09:51:15;;;;;;;7.25;5.22;;;;;;;21.67;72.65;69179.25;5004351;28;20041;-80
2022/07/31 09:53:44;;;;;;;7.85;5.18;;;;;;;21.61;73.59;69170.25;5006248;28;20046;-79
2022/07/31 09:56:11;;;;;;;9.73;6.63;;;;;;;;;;5005232;28;20683;-79
2022/07/31 09:58:37;;;;;;;9.13;6.47;;;;;;;;;;5006366;28;20046;-79
2022/07/31 10:01:03;;;;;;;9.23;6.20;;;;;;;21.72;74.36;69185.56;5006477;28;20099;-78
2022/07/31 10:03:29;;;;;;;11.05;6.40;;;;;;;;;;5004104;28;20517;-78
2022/07/31 10:05:56;;;;;;;9.27;6.65;;;;;;;21.82;74.90;69197.00;5006826;28;20069;-79
2022/07/31 10:08:22;;;;;;;10.07;6.28;;;;;;;21.81;75.59;69193.16;5005376;28;20417;-78
2022/07/31 10:10:48;;;;;;;8.30;6.53;;;;;;;21.81;74.89;69195.84;4987899;28;20080;-78
2022/07/31 10:13:18;;;;;;;9.10;6.53;;;;;;;21.76;75.26;69190.13;5006656;28;20050;-78
2022/07/31 10:15:45;;;;;;;8.07;6.22;;;;;;;21.83;75.44;69195.41;4988651;28;20045;-79
2022/07/31 10:18:11;;;;;;;9.55;7.40;;;;;;;;;;4989108;28;20574;-79
2022/07/31 10:20:40;;;;;;;9.45;6.57;;;;;;;21.92;75.39;69204.59;5002470;28;20041;-78
2022/07/31 10:23:16;;;;;;;8.32;6.43;;;;;;;;;;5003783;28;20045;-78
2022/07/31 10:25:48;;;;;;;8.55;6.15;;;;;;;21.88;75.05;69202.72;5005265;28;20045;-79
2022/07/31 10:28:14;;;;;;;10.82;7.75;;;;;;;21.74;76.87;69187.84;5005470;28;20034;-78
2022/07/31 10:30:40;;;;;;;10.80;7.65;;;;;;;21.66;79.98;69178.69;4984733;28;20441;-79
2022/07/31 10:33:05;;;;;;;13.38;8.00;;;;;;;21.55;81.66;69163.38;5000425;28;20127;-79
2022/07/31 10:35:37;;;;;;;12.52;8.23;;;;;;;21.39;84.83;69148.94;5006414;28;20573;-78
2022/07/31 10:38:14;;;;;;;12.80;8.68;;;;;;;21.53;85.43;69163.81;5006371;28;20049;-78
2022/07/31 10:40:48;;;;;;;12.95;9.82;;;;;;;21.51;84.14;69161.50;4972864;28;20042;-79
2022/07/31 10:43:23;;;;;;;10.45;8.80;;;;;;;21.50;84.06;69160.38;5006524;28;20401;-79
2022/07/31 10:45:51;;;;;;;11.38;8.68;;;;;;;21.55;82.76;69166.69;5006210;28;20731;-79
2022/07/31 10:48:17;;;;;;;11.48;9.00;;;;;;;21.52;84.18;69160.53;5002215;28;20046;-78
2022/07/31 10:50:44;;;;;;;14.60;8.82;;;;;;;21.49;81.57;69159.81;5004796;28;20077;-79
2022/07/31 10:53:18;;;;;;;13.05;9.35;;;;;;;21.59;82.65;69170.69;5003947;28;20621;-79
2022/07/31 10:55:44;;;;;;;11.80;8.70;;;;;;;21.51;81.64;69161.50;5005925;28;20042;-79
2022/07/31 10:58:10;;;;;;;12.75;9.75;;;;;;;;;;5005467;28;20100;-79
2022/07/31 11:00:36;;;;;;;12.73;9.70;;;;;;;21.52;80.45;69162.66;5005771;28;20049;-79
2022/07/31 11:03:38;;;;;;;12.50;8.77;;;;;;;21.47;79.96;69156.94;5005260;28;20042;-78
2022/07/31 11:06:03;;;;;;;13.80;9.70;;;;;;;;;;4963204;28;20046;-79
2022/07/31 11:08:42;;;;;;;12.25;9.00;;;;;;;21.51;79.14;69161.50;4986063;28;20046;-79
2022/07/31 11:11:08;;;;;;;13.45;9.02;;;;;;;21.57;80.20;69163.53;5004071;28;20042;-78
2022/07/31 11:13:43;;;;;;;12.45;9.07;;;;;;;;;;4987958;28;20050;-78
2022/07/31 11:16:08;;;;;;;12.48;10.57;;;;;;;;;;4991536;28;20046;-78
2022/07/31 11:18:34;;;;;;;13.10;10.10;;;;;;;21.69;79.95;69186.97;5009218;28;20053;-79
2022/07/31 11:21:01;;;;;;;13.05;10.80;;;;;;;21.80;80.21;69194.69;5008827;28;20472;-79
2022/07/31 11:23:30;;;;;;;15.80;11.05;;;;;;;21.79;78.48;69193.56;5009121;28;20667;-78
2022/07/31 11:26:02;;;;;;;15.10;10.98;;;;;;;21.93;79.45;69206.31;5005434;28;20053;-79
2022/07/31 11:28:28;;;;;;;13.23;11.35;;;;;;;22.00;80.17;69213.75;5008905;28;20132;-78
2022/07/31 11:30:58;;;;;;;15.18;11.52;;;;;;;22.02;79.84;69224.75;5008104;28;20514;-79
2022/07/31 11:33:42;;;;;;;14.43;11.73;;;;;;;22.14;81.18;69232.47;5007867;28;20053;-79
2022/07/31 11:36:16;;;;;;;12.07;10.10;;;;;;;22.01;79.17;69217.59;5008958;28;20041;-79
2022/07/31 11:38:46;;;;;;;12.90;10.82;;;;;;;;;;5009712;28;20096;-78
2022/07/31 11:41:11;;;;;;;12.75;11.02;;;;;;;22.09;79.89;69226.75;5004898;28;20493;-79
2022/07/31 11:43:43;;;;;;;13.80;10.07;;;;;;;22.01;76.57;69217.59;5008271;28;20041;-79
2022/07/31 11:46:08;;;;;;;11.40;9.48;;;;;;;21.95;77.69;69208.00;5008508;28;20073;-79
2022/07/31 11:48:37;;;;;;;12.23;9.60;;;;;;;21.87;77.96;69202.16;5008505;28;20050;-79
2022/07/31 11:51:02;;;;;;;14.15;10.43;;;;;;;;;;5007564;28;20045;-78
2022/07/31 11:53:27;;;;;;;12.38;9.30;;;;;;;21.71;78.86;69181.13;5007061;28;20437;-79
2022/07/31 11:55:54;;;;;;;11.48;9.20;;;;;;;;;;5008669;28;20072;-79
2022/07/31 11:58:21;;;;;;;11.48;9.63;;;;;;;21.57;79.85;69168.38;5008261;28;20701;-79
2022/07/31 12:00:51;;;;;;;12.90;9.75;;;;;;;21.54;80.04;69164.94;5008406;28;20042;-79
2022/07/31 12:03:18;;;;;;;12.57;9.98;;;;;;;21.43;81.41;69149.66;5001257;28;20050;-79
2022/07/31 12:05:49;;;;;;;14.18;10.70;;;;;;;21.29;83.28;69137.47;5001857;28;20046;-79
2022/07/31 12:08:15;;;;;;;12.32;10.05;;;;;;;21.26;84.00;69139.47;5007715;28;20184;-79
2022/07/31 12:10:41;;;;;;;12.05;10.45;;;;;;;21.37;85.01;69146.06;5007603;28;20042;-79
2022/07/31 12:13:17;;;;;;;12.45;9.45;;;;;;;21.43;83.53;69152.34;5008019;28;20045;-78
2022/07/31 12:15:53;;;;;;;10.82;9.10;;;;;;;21.50;83.19;69165.78;4989747;28;20046;-79